Time;durP1;ratioP1;P1;durP2;ratioP2;P2;SDS_P1;SDS_P2;PMS_P1;PMS_P2;Temp;Humidity;BMP_temperature;BMP_pressure;BME280_temperature;BME280_humidity;BME280_pressure;Samples;Min_cycle;Max_cycle;Signal;HPM_P1;HPM_P2
2021/12/27 00:00:12;;;;;;;15.53;6.30;;;-4.90;73.30;;;;;;5055779;28;20229;-87
2021/12/27 00:02:38;;;;;;;14.67;6.13;;;-4.90;73.20;;;;;;5055439;28;20187;-85
2021/12/27 00:05:05;;;;;;;12.60;6.63;;;-4.80;73.40;;;;;;5054040;28;20195;-86
2021/12/27 00:07:30;;;;;;;15.37;6.23;;;-4.70;72.80;;;;;;5054043;28;20516;-86
2021/12/27 00:09:56;;;;;;;10.93;6.33;;;-4.70;72.20;;;;;;5052882;28;20178;-86
2021/12/27 00:12:22;;;;;;;14.23;6.73;;;-4.70;72.40;;;;;;5052698;28;20762;-86
2021/12/27 00:14:47;;;;;;;13.57;6.77;;;-4.70;73.00;;;;;;5052605;28;20300;-86
2021/12/27 00:17:13;;;;;;;10.00;6.20;;;-4.70;73.00;;;;;;5052651;28;20203;-86
2021/12/27 00:19:39;;;;;;;11.73;6.20;;;-4.70;72.80;;;;;;5053057;28;20180;-86
2021/12/27 00:22:04;;;;;;;15.43;6.87;;;-4.60;72.70;;;;;;5052719;28;20202;-87
2021/12/27 00:24:30;;;;;;;13.03;5.70;;;-4.60;72.40;;;;;;5052676;28;20191;-86
2021/12/27 00:26:55;;;;;;;14.30;6.33;;;-4.50;72.40;;;;;;5052470;28;20543;-86
2021/12/27 00:29:21;;;;;;;17.30;6.17;;;-4.50;73.00;;;;;;5052904;28;20591;-86
2021/12/27 00:31:47;;;;;;;13.10;6.77;;;-4.40;72.90;;;;;;5052986;28;20172;-87
2021/12/27 00:34:13;;;;;;;10.90;5.97;;;-4.50;73.60;;;;;;5052806;28;20233;-87
2021/12/27 00:36:39;;;;;;;11.73;6.67;;;-4.50;73.20;;;;;;5054402;28;20563;-87
2021/12/27 00:39:05;;;;;;;14.87;6.27;;;-4.50;73.30;;;;;;5053069;28;20204;-87
2021/12/27 00:41:31;;;;;;;14.20;5.97;;;-4.40;73.70;;;;;;5052784;28;20183;-86
2021/12/27 00:43:56;;;;;;;11.10;5.60;;;-4.40;72.90;;;;;;5052583;28;20313;-87
2021/12/27 00:46:22;;;;;;;11.30;6.93;;;-4.40;74.00;;;;;;5052261;28;20572;-86
2021/12/27 00:48:47;;;;;;;10.37;6.80;;;-4.40;73.30;;;;;;5053498;28;20243;-87
2021/12/27 00:51:13;;;;;;;15.27;7.73;;;-4.40;73.60;;;;;;5053325;28;20207;-87
2021/12/27 00:53:39;;;;;;;12.90;6.97;;;-4.40;72.80;;;;;;5052561;28;20176;-87
2021/12/27 00:56:05;;;;;;;11.27;5.73;;;-4.30;72.80;;;;;;5052586;28;20231;-87
2021/12/27 00:58:30;;;;;;;10.30;6.00;;;-4.30;72.50;;;;;;5053696;28;20196;-86
2021/12/27 01:00:56;;;;;;;17.03;6.83;;;-4.30;72.20;;;;;;5052469;28;20191;-86
2021/12/27 01:03:22;;;;;;;12.17;6.87;;;-4.30;72.90;;;;;;5054054;28;20195;-85
2021/12/27 01:05:48;;;;;;;11.37;6.47;;;-4.30;72.50;;;;;;5055080;28;20566;-85
2021/12/27 01:08:14;;;;;;;16.53;7.47;;;-4.40;72.50;;;;;;5053408;28;20550;-86
2021/12/27 01:11:24;;;;;;;17.63;8.07;;;-4.30;72.80;;;;;;5052942;28;20211;-87
2021/12/27 01:13:47;;;;;;;11.97;7.37;;;-4.40;72.90;;;;;;5040263;28;20180;-87
2021/12/27 01:16:14;;;;;;;17.83;8.10;;;-4.40;73.00;;;;;;5052184;28;20246;-87
2021/12/27 01:18:42;;;;;;;14.07;6.43;;;-4.40;72.90;;;;;;5053578;28;20183;-86
2021/12/27 01:21:08;;;;;;;14.17;7.33;;;-4.30;73.00;;;;;;5053481;28;20179;-86
2021/12/27 01:23:33;;;;;;;12.83;7.20;;;-4.30;72.90;;;;;;5051758;28;20196;-86
2021/12/27 01:25:59;;;;;;;12.97;7.23;;;-4.20;72.70;;;;;;5053261;28;20280;-86
2021/12/27 01:28:25;;;;;;;16.90;8.80;;;-4.20;72.70;;;;;;5053607;28;20538;-86
2021/12/27 01:30:50;;;;;;;16.77;7.37;;;-4.20;72.20;;;;;;5051709;28;20172;-86
2021/12/27 01:33:19;;;;;;;12.80;6.53;;;-4.20;72.10;;;;;;5052075;28;20179;-87
2021/12/27 01:35:46;;;;;;;19.90;8.20;;;-4.20;72.60;;;;;;5052963;28;20192;-87
2021/12/27 01:38:13;;;;;;;13.20;7.70;;;-4.20;72.90;;;;;;5054723;28;20177;-86
2021/12/27 01:40:44;;;;;;;20.33;8.63;;;-4.20;72.60;;;;;;5055642;28;20660;-87
2021/12/27 01:43:12;;;;;;;11.80;8.10;;;-4.20;72.40;;;;;;5055445;28;20263;-87
2021/12/27 01:45:42;;;;;;;13.03;7.50;;;-4.20;73.00;;;;;;5053506;28;20196;-86
2021/12/27 01:48:09;;;;;;;12.37;6.90;;;-4.20;72.60;;;;;;5055583;28;20235;-86
2021/12/27 01:50:37;;;;;;;17.03;8.23;;;-4.20;72.40;;;;;;5053820;28;20259;-85
2021/12/27 01:53:03;;;;;;;10.90;7.20;;;-4.20;73.30;;;;;;5053129;28;20209;-85
2021/12/27 01:55:29;;;;;;;18.23;8.90;;;-4.20;72.70;;;;;;5053257;28;20241;-86
2021/12/27 01:57:55;;;;;;;15.47;7.97;;;-4.20;71.90;;;;;;5053095;28;20172;-86
2021/12/27 02:00:21;;;;;;;15.77;8.90;;;-4.20;72.10;;;;;;5051387;28;20248;-87
2021/12/27 02:02:46;;;;;;;15.30;8.27;;;-4.10;72.70;;;;;;5052555;28;20196;-86
2021/12/27 02:05:14;;;;;;;17.63;8.03;;;-4.20;72.30;;;;;;5052841;28;20667;-87
2021/12/27 02:07:40;;;;;;;18.13;7.80;;;-4.20;72.50;;;;;;5051535;28;20184;-86
2021/12/27 02:10:06;;;;;;;15.17;8.43;;;-4.20;72.00;;;;;;5051955;28;20168;-86
2021/12/27 02:12:33;;;;;;;16.23;8.87;;;-4.30;72.50;;;;;;5051684;28;20571;-86
2021/12/27 02:14:59;;;;;;;18.93;8.83;;;-4.30;72.50;;;;;;5051211;28;20219;-86
2021/12/27 02:17:25;;;;;;;20.60;9.20;;;-4.20;73.00;;;;;;5052571;28;20180;-86
2021/12/27 02:19:52;;;;;;;17.47;9.60;;;-4.30;73.30;;;;;;5053896;28;20191;-86
2021/12/27 02:22:18;;;;;;;20.40;9.10;;;-4.30;73.70;;;;;;5054868;28;20580;-86
2021/12/27 02:24:44;;;;;;;14.80;8.43;;;-4.30;73.70;;;;;;5054798;28;20202;-86
2021/12/27 02:27:15;;;;;;;14.97;8.60;;;-4.40;73.30;;;;;;5054775;28;20266;-86
2021/12/27 02:29:41;;;;;;;21.50;9.60;;;-4.40;73.60;;;;;;5056142;28;20596;-86
2021/12/27 02:32:06;;;;;;;19.63;9.27;;;-4.40;73.80;;;;;;5056075;28;20215;-86
2021/12/27 02:34:32;;;;;;;19.07;9.03;;;-4.40;73.90;;;;;;5054635;28;20280;-85
2021/12/27 02:36:59;;;;;;;16.53;8.53;;;-4.40;74.70;;;;;;5054630;28;20176;-86
2021/12/27 02:39:25;;;;;;;20.57;9.00;;;-4.30;74.50;;;;;;5056035;28;20700;-86
2021/12/27 02:41:52;;;;;;;18.63;9.53;;;-4.30;75.20;;;;;;5055615;28;20172;-86
2021/12/27 02:44:17;;;;;;;21.37;9.77;;;-4.30;74.50;;;;;;5054283;28;20644;-86
2021/12/27 02:46:43;;;;;;;17.40;7.97;;;-4.30;74.50;;;;;;5054386;28;20233;-86
2021/12/27 02:49:09;;;;;;;19.10;10.57;;;-4.30;74.90;;;;;;5055650;28;20179;-86
2021/12/27 02:51:35;;;;;;;20.93;10.30;;;-4.30;75.30;;;;;;5055615;28;20195;-86
2021/12/27 02:54:01;;;;;;;18.70;9.40;;;-4.30;74.90;;;;;;5054263;28;20667;-86
2021/12/27 02:56:29;;;;;;;20.27;10.60;;;-4.30;74.80;;;;;;5055542;28;20205;-86
2021/12/27 02:58:56;;;;;;;20.80;9.83;;;-4.20;74.70;;;;;;5055789;28;20194;-86
2021/12/27 03:01:23;;;;;;;19.17;8.37;;;-4.20;74.50;;;;;;5055598;28;20176;-86
2021/12/27 03:03:50;;;;;;;18.53;10.63;;;-4.20;74.50;;;;;;5055352;28;20203;-86
2021/12/27 03:06:15;;;;;;;25.73;11.07;;;-4.20;74.50;;;;;;5053960;28;20200;-86
2021/12/27 03:08:43;;;;;;;22.63;11.27;;;-4.20;75.00;;;;;;5054044;28;20183;-87
2021/12/27 03:11:12;;;;;;;19.30;9.63;;;-4.20;74.60;;;;;;5053981;28;20208;-86
2021/12/27 03:13:43;;;;;;;23.93;10.80;;;-4.20;74.50;;;;;;5055210;28;20172;-87
2021/12/27 03:16:11;;;;;;;25.53;10.33;;;-4.20;74.70;;;;;;5055123;28;20216;-87
2021/12/27 03:18:39;;;;;;;19.90;10.43;;;-4.10;74.90;;;;;;5055379;28;20180;-86
2021/12/27 03:21:06;;;;;;;25.63;10.50;;;-4.10;74.80;;;;;;5053941;28;20187;-86
2021/12/27 03:23:33;;;;;;;20.87;10.10;;;-4.10;75.50;;;;;;5054870;28;20202;-86
2021/12/27 03:25:58;;;;;;;25.07;10.33;;;-4.10;75.10;;;;;;5053593;28;20196;-86
2021/12/27 03:28:24;;;;;;;23.63;12.27;;;-4.10;75.30;;;;;;5053871;28;20234;-86
2021/12/27 03:30:51;;;;;;;19.33;10.43;;;-4.10;75.30;;;;;;5054358;28;20230;-86
2021/12/27 03:33:20;;;;;;;17.37;9.27;;;-4.10;75.40;;;;;;5053489;28;20182;-86
2021/12/27 03:36:04;;;;;;;21.47;11.83;;;-4.00;75.60;;;;;;5053493;28;20257;-86
2021/12/27 03:38:33;;;;;;;20.30;10.40;;;-4.00;74.90;;;;;;5054632;28;20184;-86
2021/12/27 03:40:59;;;;;;;27.70;11.97;;;-4.00;74.90;;;;;;5053362;28;20187;-86
2021/12/27 03:43:25;;;;;;;24.57;12.20;;;-3.90;75.20;;;;;;5054825;28;20196;-86
2021/12/27 03:45:52;;;;;;;27.57;12.57;;;-3.90;75.40;;;;;;5053211;28;20604;-86
2021/12/27 03:48:18;;;;;;;24.50;11.77;;;-3.90;75.50;;;;;;5054890;28;20200;-86
2021/12/27 03:50:44;;;;;;;21.10;11.33;;;-3.90;75.20;;;;;;5053240;28;20225;-86
2021/12/27 03:53:11;;;;;;;24.27;11.50;;;-3.80;75.60;;;;;;5053222;28;20187;-86
2021/12/27 03:55:37;;;;;;;27.33;12.23;;;-3.80;75.50;;;;;;5053002;28;20204;-87
2021/12/27 03:58:09;;;;;;;22.03;11.60;;;-3.90;75.30;;;;;;5053235;28;20180;-86
2021/12/27 04:00:58;;;;;;;26.50;12.47;;;-3.80;75.90;;;;;;5053167;28;20584;-86
2021/12/27 04:03:24;;;;;;;20.50;11.80;;;-3.90;75.60;;;;;;5053128;28;20261;-86
2021/12/27 04:05:50;;;;;;;22.17;11.07;;;-3.90;75.80;;;;;;5054080;28;20703;-86
2021/12/27 04:08:18;;;;;;;25.50;12.07;;;-3.90;76.40;;;;;;5054081;28;20298;-86
2021/12/27 04:10:44;;;;;;;23.13;10.90;;;-3.80;76.80;;;;;;5052793;28;20250;-86
2021/12/27 04:13:12;;;;;;;27.73;11.63;;;-3.90;77.00;;;;;;5052680;28;20180;-86
2021/12/27 04:15:39;;;;;;;22.97;10.97;;;-3.90;76.80;;;;;;5146754;22;20247;-86
2021/12/27 04:18:09;;;;;;;23.10;12.10;;;-3.90;76.90;;;;;;5054942;28;20195;-86
2021/12/27 04:20:35;;;;;;;25.47;13.07;;;-3.90;76.90;;;;;;5053132;28;20259;-86
2021/12/27 04:23:00;;;;;;;24.50;10.77;;;-3.90;77.30;;;;;;5053091;28;20653;-86
2021/12/27 04:25:26;;;;;;;23.30;9.97;;;-3.90;77.30;;;;;;5052883;28;20188;-86
2021/12/27 04:27:52;;;;;;;24.80;11.07;;;-3.90;77.20;;;;;;5054686;28;20587;-86
2021/12/27 04:30:21;;;;;;;27.33;11.80;;;-4.00;77.50;;;;;;5054363;28;20536;-86
2021/12/27 04:32:47;;;;;;;23.77;11.83;;;-4.00;76.90;;;;;;5054320;28;20183;-86
2021/12/27 04:35:14;;;;;;;28.10;11.40;;;-4.10;77.40;;;;;;5054101;28;20214;-86
2021/12/27 04:37:40;;;;;;;25.87;11.37;;;-4.00;77.50;;;;;;5053081;28;20176;-86
2021/12/27 04:40:09;;;;;;;19.73;10.17;;;-4.10;77.40;;;;;;5052800;28;20180;-86
2021/12/27 04:42:34;;;;;;;19.00;9.97;;;-4.20;77.60;;;;;;5051916;28;20231;-86
2021/12/27 04:45:02;;;;;;;27.53;11.37;;;-4.10;77.40;;;;;;5052842;28;20273;-86
2021/12/27 04:47:28;;;;;;;25.07;12.80;;;-4.10;77.00;;;;;;5053053;28;20182;-86
2021/12/27 04:49:54;;;;;;;32.33;10.97;;;-4.20;77.40;;;;;;5052787;28;20644;-86
2021/12/27 04:52:20;;;;;;;25.37;11.63;;;-4.20;77.60;;;;;;5052628;28;20244;-86
2021/12/27 04:54:46;;;;;;;23.83;11.97;;;-4.20;77.60;;;;;;5053725;28;20202;-86
2021/12/27 04:57:11;;;;;;;27.53;11.17;;;-4.20;77.90;;;;;;5052711;28;20202;-86
2021/12/27 04:59:37;;;;;;;26.60;13.50;;;-4.10;78.00;;;;;;5052686;28;20172;-86
2021/12/27 05:02:03;;;;;;;32.13;12.87;;;-4.10;78.10;;;;;;5053815;28;20695;-86
2021/12/27 05:04:29;;;;;;;33.83;13.17;;;-4.10;78.10;;;;;;5053752;28;20199;-86
2021/12/27 05:06:55;;;;;;;24.30;12.27;;;-4.00;78.10;;;;;;5052743;28;20219;-86
2021/12/27 05:09:20;;;;;;;30.87;12.70;;;-4.00;77.90;;;;;;5052237;28;20168;-86
2021/12/27 05:11:46;;;;;;;25.10;12.00;;;-3.90;77.70;;;;;;5052423;28;20176;-86
2021/12/27 05:14:12;;;;;;;30.50;12.47;;;-3.90;77.10;;;;;;5052237;28;20176;-86
2021/12/27 05:16:38;;;;;;;25.80;12.57;;;-3.90;77.40;;;;;;5052264;28;20627;-86
2021/12/27 05:19:03;;;;;;;25.23;12.93;;;-3.80;77.30;;;;;;5053664;28;20172;-86
2021/12/27 05:21:29;;;;;;;22.13;11.10;;;-3.90;77.40;;;;;;5052884;28;20175;-86
2021/12/27 05:23:54;;;;;;;26.63;12.33;;;-3.80;77.30;;;;;;5053746;28;20621;-86
2021/12/27 05:26:20;;;;;;;23.37;12.10;;;-3.80;77.40;;;;;;5052207;28;20195;-86
2021/12/27 05:28:46;;;;;;;26.67;14.07;;;-3.80;77.70;;;;;;5053737;28;20200;-86
2021/12/27 05:31:11;;;;;;;35.83;14.93;;;-3.80;77.50;;;;;;5052048;28;20175;-86
2021/12/27 05:33:37;;;;;;;30.63;13.10;;;-3.80;77.90;;;;;;5052166;28;20190;-86
2021/12/27 05:36:03;;;;;;;27.50;13.47;;;-3.80;77.90;;;;;;5053527;28;20715;-86
2021/12/27 05:38:29;;;;;;;33.50;13.87;;;-3.70;78.20;;;;;;5053442;28;20253;-86
2021/12/27 05:40:55;;;;;;;32.90;14.37;;;-3.70;78.00;;;;;;5053547;28;20214;-86
2021/12/27 05:43:21;;;;;;;34.10;13.03;;;-3.70;78.00;;;;;;5051958;28;20265;-86
2021/12/27 05:45:47;;;;;;;29.73;13.97;;;-3.70;77.80;;;;;;5053182;28;20263;-86
2021/12/27 05:48:13;;;;;;;20.93;11.73;;;-3.70;77.70;;;;;;5051998;28;20648;-86
2021/12/27 05:50:38;;;;;;;26.20;12.27;;;-3.60;78.20;;;;;;5052173;28;20172;-86
2021/12/27 05:53:04;;;;;;;32.50;14.37;;;-3.60;78.20;;;;;;5053140;28;20204;-86
2021/12/27 05:55:30;;;;;;;32.73;14.00;;;-3.60;78.30;;;;;;5055399;28;20717;-86
2021/12/27 05:57:57;;;;;;;28.23;12.63;;;-3.50;78.30;;;;;;5057005;28;20517;-86
2021/12/27 06:00:23;;;;;;;33.20;15.57;;;-3.50;78.70;;;;;;5055448;28;20207;-86
2021/12/27 06:02:51;;;;;;;18.37;9.73;;;-3.50;78.80;;;;;;5055739;28;20254;-86
2021/12/27 06:05:17;;;;;;;23.23;12.30;;;-3.50;78.70;;;;;;5055646;28;20200;-86
2021/12/27 06:07:43;;;;;;;22.30;12.37;;;-3.50;78.50;;;;;;5057048;28;20226;-86
2021/12/27 06:10:09;;;;;;;34.70;14.30;;;-3.50;79.00;;;;;;5056884;28;20182;-86
2021/12/27 06:12:35;;;;;;;30.00;14.43;;;-3.50;78.90;;;;;;5055927;28;20609;-86
2021/12/27 06:15:01;;;;;;;34.33;15.73;;;-3.50;79.00;;;;;;5056553;28;20188;-86
2021/12/27 06:17:26;;;;;;;33.07;15.63;;;-3.50;79.20;;;;;;5057136;28;20306;-86
2021/12/27 06:19:52;;;;;;;27.10;14.20;;;-3.50;79.50;;;;;;5055236;28;20322;-86
2021/12/27 06:22:19;;;;;;;35.03;15.40;;;-3.50;79.90;;;;;;5055235;28;20306;-86
2021/12/27 06:24:45;;;;;;;33.10;15.53;;;-3.50;80.10;;;;;;5056384;28;20580;-86
2021/12/27 06:27:10;;;;;;;35.80;15.63;;;-3.50;80.50;;;;;;5056506;28;20184;-86
2021/12/27 06:29:36;;;;;;;32.90;14.87;;;-3.50;80.30;;;;;;5056351;28;20181;-87
2021/12/27 06:32:02;;;;;;;31.43;16.90;;;-3.50;80.50;;;;;;5056332;28;20247;-86
2021/12/27 06:34:27;;;;;;;36.67;17.67;;;-3.50;80.70;;;;;;5055027;28;20180;-86
2021/12/27 06:36:53;;;;;;;30.97;13.93;;;-3.50;80.80;;;;;;5055283;28;20202;-86
2021/12/27 06:39:19;;;;;;;28.97;15.23;;;-3.50;80.90;;;;;;5056339;28;20202;-86
2021/12/27 06:41:44;;;;;;;37.00;16.53;;;-3.50;80.90;;;;;;5055194;28;20251;-86
2021/12/27 06:44:10;;;;;;;30.73;15.13;;;-3.50;80.80;;;;;;5056282;28;20214;-86
2021/12/27 06:46:35;;;;;;;32.73;15.73;;;-3.50;80.80;;;;;;5055025;28;20199;-87
2021/12/27 06:49:01;;;;;;;33.27;15.60;;;-3.60;81.10;;;;;;5054865;28;20267;-86
2021/12/27 06:51:27;;;;;;;29.17;15.40;;;-3.60;81.40;;;;;;5054692;28;20301;-86
2021/12/27 06:53:52;;;;;;;33.30;15.97;;;-3.60;81.70;;;;;;5054755;28;20659;-86
2021/12/27 06:56:18;;;;;;;27.50;15.77;;;-3.60;81.80;;;;;;5056181;28;20207;-86
2021/12/27 06:58:44;;;;;;;32.60;15.30;;;-3.60;82.20;;;;;;5054723;28;20557;-86
2021/12/27 07:01:09;;;;;;;35.73;17.73;;;-3.60;82.50;;;;;;5055933;28;20261;-86
2021/12/27 07:03:35;;;;;;;33.73;16.70;;;-3.60;82.60;;;;;;5054335;28;20298;-86
2021/12/27 07:06:01;;;;;;;39.60;16.90;;;-3.60;82.70;;;;;;5053299;28;20242;-85
2021/12/27 07:08:27;;;;;;;37.47;18.33;;;-3.60;82.90;;;;;;5055543;28;20171;-86
2021/12/27 07:10:53;;;;;;;35.93;17.40;;;-3.60;83.10;;;;;;5056211;28;20169;-86
2021/12/27 07:13:18;;;;;;;31.83;16.67;;;-3.60;83.50;;;;;;5056534;28;20229;-87
2021/12/27 07:15:45;;;;;;;35.20;16.07;;;-3.50;83.70;;;;;;5054872;28;20219;-87
2021/12/27 07:18:12;;;;;;;34.23;16.10;;;-3.50;84.00;;;;;;5053914;28;20266;-87
2021/12/27 07:20:39;;;;;;;32.23;17.57;;;-3.50;84.20;;;;;;5053831;28;20186;-87
2021/12/27 07:23:06;;;;;;;29.57;14.73;;;-3.60;84.00;;;;;;5054889;28;20294;-87
2021/12/27 07:25:32;;;;;;;32.37;15.47;;;-3.60;83.90;;;;;;5054012;28;20196;-86
2021/12/27 07:27:58;;;;;;;32.43;15.90;;;-3.60;83.90;;;;;;5054839;28;20225;-86
2021/12/27 07:30:24;;;;;;;35.53;16.83;;;-3.60;83.90;;;;;;5053657;28;20179;-86
2021/12/27 07:32:49;;;;;;;34.00;17.20;;;-3.70;83.90;;;;;;5053524;28;20220;-86
2021/12/27 07:35:16;;;;;;;33.07;16.27;;;-3.60;83.70;;;;;;5055050;28;20280;-86
2021/12/27 07:37:41;;;;;;;39.23;18.53;;;-3.60;83.80;;;;;;5054693;28;20179;-86
2021/12/27 07:40:09;;;;;;;30.57;16.20;;;-3.60;83.80;;;;;;5053255;28;20188;-86
2021/12/27 07:42:34;;;;;;;29.73;16.23;;;-3.60;83.70;;;;;;5053114;28;20212;-86
2021/12/27 07:45:01;;;;;;;37.00;18.50;;;-3.60;83.80;;;;;;5054445;28;20203;-86
2021/12/27 07:47:27;;;;;;;42.97;18.33;;;-3.60;83.70;;;;;;5054521;28;20181;-86
2021/12/27 07:49:53;;;;;;;35.70;17.57;;;-3.50;83.90;;;;;;5053327;28;20180;-86
2021/12/27 07:52:18;;;;;;;30.60;16.43;;;-3.50;83.80;;;;;;5053203;28;20168;-86
2021/12/27 07:54:44;;;;;;;34.17;16.53;;;-3.40;83.90;;;;;;5054227;28;20172;-86
2021/12/27 07:57:11;;;;;;;33.10;16.87;;;-3.30;83.60;;;;;;5053223;28;20176;-86
2021/12/27 07:59:37;;;;;;;40.27;17.53;;;-3.30;83.60;;;;;;5054287;28;20255;-86
2021/12/27 08:02:03;;;;;;;37.80;17.77;;;-3.30;83.40;;;;;;5053003;28;20172;-86
2021/12/27 08:04:29;;;;;;;36.13;16.57;;;-3.30;83.40;;;;;;5054182;28;20175;-85
2021/12/27 08:06:54;;;;;;;35.20;18.07;;;-3.30;83.50;;;;;;5052879;28;20188;-85
2021/12/27 08:09:20;;;;;;;36.70;17.20;;;-3.20;83.40;;;;;;5052917;28;20172;-86
2021/12/27 08:11:46;;;;;;;38.10;18.73;;;-3.20;83.30;;;;;;5054242;28;20187;-86
2021/12/27 08:14:12;;;;;;;35.20;18.73;;;-3.10;83.50;;;;;;5052589;28;20184;-86
2021/12/27 08:16:38;;;;;;;38.53;17.70;;;-3.10;83.60;;;;;;5053529;28;20217;-85
2021/12/27 08:19:03;;;;;;;37.77;19.67;;;-3.10;83.40;;;;;;5052549;28;20182;-86
2021/12/27 08:21:31;;;;;;;35.00;19.20;;;-3.00;83.60;;;;;;5052485;28;20213;-85
2021/12/27 08:23:57;;;;;;;37.53;18.87;;;-3.10;83.80;;;;;;5052329;28;20195;-86
2021/12/27 08:26:22;;;;;;;39.13;19.87;;;-3.00;83.70;;;;;;5053670;28;20280;-86
2021/12/27 08:28:51;;;;;;;37.73;18.40;;;-2.90;83.70;;;;;;5053579;28;20255;-86
2021/12/27 08:31:17;;;;;;;41.27;17.83;;;-2.90;83.70;;;;;;5053553;28;20172;-86
2021/12/27 08:33:42;;;;;;;35.57;19.57;;;-2.90;83.50;;;;;;5053595;28;20555;-86
2021/12/27 08:36:08;;;;;;;33.43;18.87;;;-2.90;83.30;;;;;;5052217;28;20702;-85
2021/12/27 08:38:34;;;;;;;35.33;18.10;;;-2.90;83.10;;;;;;5053487;28;20172;-85
2021/12/27 08:40:59;;;;;;;39.87;20.57;;;-2.80;83.10;;;;;;5052502;28;20176;-85
2021/12/27 08:43:25;;;;;;;36.17;19.63;;;-2.80;83.10;;;;;;5053421;28;20573;-85
2021/12/27 08:45:52;;;;;;;39.30;20.33;;;-2.80;83.20;;;;;;5053341;28;20188;-85
2021/12/27 08:48:18;;;;;;;43.33;20.53;;;-2.80;83.20;;;;;;5052057;28;20648;-85
2021/12/27 08:50:43;;;;;;;44.57;20.90;;;-2.80;83.00;;;;;;5052063;28;20179;-86
2021/12/27 08:53:09;;;;;;;42.67;20.43;;;-2.80;82.90;;;;;;5052047;28;20176;-86
2021/12/27 08:55:37;;;;;;;37.83;20.50;;;-2.80;83.10;;;;;;5053593;28;20274;-86
2021/12/27 08:58:04;;;;;;;41.77;19.77;;;-2.70;83.00;;;;;;5051936;28;20204;-86
2021/12/27 09:00:30;;;;;;;44.47;19.43;;;-2.70;82.90;;;;;;5053397;28;20173;-86
2021/12/27 09:02:55;;;;;;;36.00;19.73;;;-2.70;82.80;;;;;;5052386;28;20200;-86
2021/12/27 09:05:22;;;;;;;38.13;19.67;;;-2.70;82.80;;;;;;5053354;28;20207;-86
2021/12/27 09:07:47;;;;;;;37.90;16.87;;;-2.70;83.00;;;;;;5051891;28;20177;-85
2021/12/27 09:10:13;;;;;;;41.27;21.00;;;-2.70;83.00;;;;;;5051755;28;20747;-85
2021/12/27 09:12:40;;;;;;;40.27;18.20;;;-2.70;83.10;;;;;;5051829;28;20182;-86
2021/12/27 09:15:07;;;;;;;39.00;21.07;;;-2.70;83.10;;;;;;5051622;28;20287;-85
2021/12/27 09:17:33;;;;;;;36.60;17.57;;;-2.60;83.30;;;;;;5052988;28;20245;-85
2021/12/27 09:19:58;;;;;;;45.10;21.03;;;-2.60;83.40;;;;;;5051724;28;20212;-85
2021/12/27 09:22:24;;;;;;;38.67;20.67;;;-2.60;83.40;;;;;;5051693;28;20227;-85
2021/12/27 09:24:50;;;;;;;44.53;20.83;;;-2.60;83.60;;;;;;5052852;28;20542;-85
2021/12/27 09:27:17;;;;;;;34.43;16.67;;;-2.60;83.30;;;;;;5052951;28;20650;-86
2021/12/27 09:29:43;;;;;;;34.40;21.03;;;-2.60;83.50;;;;;;5055337;28;20180;-85
2021/12/27 09:32:10;;;;;;;45.50;21.00;;;-2.60;83.30;;;;;;5057040;28;20164;-86
2021/12/27 09:34:36;;;;;;;26.20;14.03;;;-2.60;83.20;;;;;;5056887;28;20171;-86
2021/12/27 09:37:02;;;;;;;39.17;19.17;;;-2.60;83.20;;;;;;5057135;28;20647;-85
2021/12/27 09:39:27;;;;;;;44.97;20.70;;;-2.60;83.30;;;;;;5055608;28;20360;-85
2021/12/27 09:41:53;;;;;;;38.03;18.67;;;-2.60;83.40;;;;;;5056292;28;20197;-85
2021/12/27 09:44:18;;;;;;;36.77;19.87;;;-2.60;83.50;;;;;;5056719;28;20174;-85
2021/12/27 09:46:44;;;;;;;42.23;19.83;;;-2.50;83.40;;;;;;5055371;28;20223;-85
2021/12/27 09:49:13;;;;;;;37.17;19.90;;;-2.50;83.60;;;;;;5055410;28;20612;-86
2021/12/27 09:51:40;;;;;;;35.30;17.10;;;-2.40;83.40;;;;;;5055313;28;20203;-85
2021/12/27 09:54:06;;;;;;;42.27;20.97;;;-2.50;83.50;;;;;;5056787;28;20168;-86
2021/12/27 09:56:32;;;;;;;38.93;19.60;;;-2.50;83.60;;;;;;5056443;28;20594;-85
2021/12/27 09:58:58;;;;;;;42.70;21.00;;;-2.50;83.80;;;;;;5056764;28;20168;-86
2021/12/27 10:01:24;;;;;;;45.33;20.83;;;-2.50;83.50;;;;;;5055170;28;20271;-86
2021/12/27 10:03:59;;;;;;;38.47;19.03;;;-2.50;83.40;;;;;;5056303;28;20193;-86
2021/12/27 10:06:26;;;;;;;43.90;19.60;;;-2.40;83.60;;;;;;5055104;28;20192;-86
2021/12/27 10:08:55;;;;;;;44.33;22.30;;;-2.40;83.80;;;;;;5056324;28;20161;-86
2021/12/27 10:11:25;;;;;;;40.67;20.43;;;-2.40;83.70;;;;;;5054881;28;20174;-86
2021/12/27 10:14:00;;;;;;;40.17;21.70;;;-2.40;83.60;;;;;;5055342;28;20204;-86
2021/12/27 10:16:26;;;;;;;40.50;21.97;;;-2.30;83.70;;;;;;5054954;28;20760;-86
2021/12/27 10:18:56;;;;;;;46.33;22.00;;;-2.30;83.40;;;;;;5056131;28;20553;-86
2021/12/27 10:21:23;;;;;;;40.47;21.70;;;-2.20;83.50;;;;;;5054861;28;20182;-85
2021/12/27 10:23:48;;;;;;;45.03;23.87;;;-2.10;83.50;;;;;;5054789;28;20300;-85
2021/12/27 10:26:18;;;;;;;38.47;21.13;;;-2.10;83.60;;;;;;5054684;28;20733;-86
2021/12/27 10:28:44;;;;;;;43.87;21.70;;;-2.00;83.50;;;;;;5055960;28;20662;-86
2021/12/27 10:31:09;;;;;;;55.30;23.50;;;-2.00;83.30;;;;;;5055907;28;20251;-86
2021/12/27 10:33:36;;;;;;;48.50;21.87;;;-2.00;83.20;;;;;;5055818;28;20185;-86
2021/12/27 10:36:02;;;;;;;44.20;19.87;;;-2.00;83.40;;;;;;5055719;28;20187;-85
2021/12/27 10:38:36;;;;;;;43.43;22.20;;;-2.00;83.40;;;;;;5054512;28;20189;-86
2021/12/27 10:41:09;;;;;;;42.73;21.57;;;-2.00;83.50;;;;;;5054719;28;20193;-85
2021/12/27 10:43:43;;;;;;;41.97;22.20;;;-2.00;83.60;;;;;;5055646;28;20215;-86
2021/12/27 10:46:14;;;;;;;46.07;23.40;;;-2.00;83.60;;;;;;5054820;28;20184;-87
2021/12/27 10:48:43;;;;;;;46.93;24.10;;;-2.10;83.40;;;;;;5054434;28;20157;-87
2021/12/27 10:51:09;;;;;;;42.37;22.80;;;-2.00;83.60;;;;;;5055547;28;20228;-86
2021/12/27 10:53:55;;;;;;;43.33;20.50;;;-2.00;83.50;;;;;;5054644;28;20179;-87
2021/12/27 10:56:24;;;;;;;46.40;23.53;;;-2.00;83.60;;;;;;5054087;28;20211;-87
2021/12/27 10:58:55;;;;;;;46.37;23.00;;;-2.00;83.60;;;;;;5054171;28;20187;-86
2021/12/27 11:01:24;;;;;;;38.93;19.67;;;-2.00;83.80;;;;;;5055320;28;20185;-86
2021/12/27 11:03:52;;;;;;;47.83;24.00;;;-1.90;84.00;;;;;;5055272;28;20202;-87
2021/12/27 11:06:21;;;;;;;45.20;22.13;;;-1.90;84.20;;;;;;5054383;28;20220;-86
2021/12/27 11:08:47;;;;;;;45.63;23.50;;;-1.90;84.10;;;;;;5054012;28;20175;-87
2021/12/27 11:11:15;;;;;;;53.10;26.53;;;-2.00;84.10;;;;;;5053944;28;20169;-86
2021/12/27 11:13:42;;;;;;;48.60;24.17;;;-1.90;84.20;;;;;;5055252;28;20227;-87
2021/12/27 11:16:08;;;;;;;48.33;25.07;;;-1.90;84.40;;;;;;5054162;28;20260;-87
2021/12/27 11:18:34;;;;;;;46.90;25.67;;;-1.80;84.40;;;;;;5055825;28;20202;-88
2021/12/27 11:21:03;;;;;;;49.57;24.73;;;-1.80;84.30;;;;;;5054353;28;20229;-87
2021/12/27 11:23:29;;;;;;;49.83;24.67;;;-1.80;84.40;;;;;;5053813;28;20204;-86
2021/12/27 11:26:03;;;;;;;48.60;26.77;;;-1.70;84.80;;;;;;5053750;28;20236;-87
2021/12/27 11:28:37;;;;;;;45.93;26.33;;;-1.70;84.70;;;;;;5053610;28;20168;-87
2021/12/27 11:31:22;;;;;;;46.43;24.17;;;-1.60;84.80;;;;;;5053567;28;20187;-87
2021/12/27 11:34:00;;;;;;;57.83;28.03;;;-1.60;84.90;;;;;;5053585;28;20181;-87
2021/12/27 11:36:32;;;;;;;45.07;23.33;;;-1.60;84.80;;;;;;5053484;28;20195;-87
2021/12/27 11:39:00;;;;;;;46.03;25.20;;;-1.50;85.10;;;;;;5054389;28;20247;-87
2021/12/27 11:41:34;;;;;;;40.50;22.33;;;-1.60;84.80;;;;;;5055015;28;20178;-87
2021/12/27 11:44:06;;;;;;;47.13;24.43;;;-1.60;84.70;;;;;;5053280;28;20292;-87
2021/12/27 11:46:51;;;;;;;48.23;25.93;;;-1.60;84.80;;;;;;5054867;28;20558;-87
2021/12/27 11:49:51;;;;;;;47.40;26.83;;;-1.60;84.80;;;;;;5054395;28;20178;-87
2021/12/27 11:52:29;;;;;;;49.17;22.90;;;-1.60;84.80;;;;;;5038820;28;20182;-87
2021/12/27 11:55:01;;;;;;;42.80;24.23;;;-1.50;85.00;;;;;;5053194;28;20165;-87
2021/12/27 11:57:42;;;;;;;40.30;22.03;;;-1.50;84.80;;;;;;5054388;28;20524;-88
2021/12/27 12:00:17;;;;;;;38.63;21.23;;;-1.50;84.60;;;;;;5053306;28;20176;-88
2021/12/27 12:02:55;;;;;;;53.27;27.80;;;-1.50;84.80;;;;;;5053090;28;20198;-87
2021/12/27 12:05:42;;;;;;;44.03;24.50;;;-1.50;84.70;;;;;;5054130;28;20189;-87
2021/12/27 12:08:09;;;;;;;44.67;24.57;;;-1.50;84.70;;;;;;5052900;28;20367;-88
2021/12/27 12:10:37;;;;;;;47.13;25.73;;;-1.40;84.90;;;;;;5052823;28;20181;-87
2021/12/27 12:13:21;;;;;;;42.30;22.33;;;-1.40;84.80;;;;;;5054360;28;20257;-87
2021/12/27 12:16:07;;;;;;;48.17;25.43;;;-1.40;84.60;;;;;;5052846;28;20300;-88
2021/12/27 12:18:39;;;;;;;46.77;22.23;;;-1.40;84.70;;;;;;5054247;28;20168;-87
2021/12/27 12:21:05;;;;;;;44.80;23.13;;;-1.40;84.90;;;;;;5052536;28;20580;-87
2021/12/27 12:23:35;;;;;;;44.37;23.37;;;-1.40;84.90;;;;;;5053707;28;20673;-88
2021/12/27 12:26:03;;;;;;;46.77;24.80;;;-1.40;85.00;;;;;;5052815;28;20283;-88
2021/12/27 12:28:29;;;;;;;46.37;25.13;;;-1.50;84.80;;;;;;5053307;28;20233;-88